Time;durP1;ratioP1;P1;durP2;ratioP2;P2;SDS_P1;SDS_P2;PMS_P1;PMS_P2;Temp;Humidity;BMP_temperature;BMP_pressure;BME280_temperature;BME280_humidity;BME280_pressure;Samples;Min_cycle;Max_cycle;Signal;HPM_P1;HPM_P2
2023/06/30 00:01:57;;;;;;;3.00;2.70;;;24.70;27.10;;;;;;10428925;28;20332;-66
2023/06/30 00:07:01;;;;;;;4.17;3.13;;;24.60;27.60;;;;;;10425339;28;20324;-66
2023/06/30 00:12:05;;;;;;;3.30;3.00;;;24.60;27.40;;;;;;10412836;28;20306;-67
2023/06/30 00:17:09;;;;;;;4.50;3.30;;;24.60;27.60;;;;;;10417331;28;20232;-66
2023/06/30 00:22:13;;;;;;;3.80;3.50;;;24.50;27.90;;;;;;10425111;28;20308;-66
2023/06/30 00:27:16;;;;;;;3.57;3.27;;;24.50;27.70;;;;;;10421825;28;20233;-66
2023/06/30 00:32:21;;;;;;;3.70;3.37;;;24.50;27.80;;;;;;10413626;28;20715;-66
2023/06/30 00:37:24;;;;;;;3.30;3.10;;;24.50;28.40;;;;;;10424273;28;20806;-67
2023/06/30 00:42:28;;;;;;;3.70;3.40;;;24.50;28.40;;;;;;10432027;28;20232;-67
2023/06/30 00:47:33;;;;;;;6.30;3.43;;;24.50;28.40;;;;;;10426602;28;20226;-67
2023/06/30 00:52:38;;;;;;;3.90;3.37;;;24.50;29.00;;;;;;10433825;28;20224;-67
2023/06/30 00:57:41;;;;;;;4.20;3.80;;;24.50;28.40;;;;;;10427403;28;20873;-67
2023/06/30 01:02:54;;;;;;;3.97;3.60;;;24.40;28.90;;;;;;10424796;28;20248;-67
2023/06/30 01:08:05;;;;;;;4.97;3.63;;;24.40;30.50;;;;;;10425427;28;20253;-67
2023/06/30 01:13:10;;;;;;;5.27;3.73;;;24.30;30.70;;;;;;10430234;28;20239;-67
2023/06/30 01:18:19;;;;;;;3.17;2.97;;;24.30;29.60;;;;;;10419798;28;20315;-67
2023/06/30 01:23:32;;;;;;;5.80;3.60;;;24.30;30.10;;;;;;10427088;28;20232;-67
2023/06/30 01:28:35;;;;;;;4.20;3.90;;;24.30;32.10;;;;;;10426910;28;20232;-67
2023/06/30 01:33:41;;;;;;;4.13;3.57;;;24.30;30.20;;;;;;10420887;28;20224;-67
2023/06/30 01:38:44;;;;;;;4.27;3.87;;;24.20;31.20;;;;;;10426445;28;20228;-67
2023/06/30 01:43:49;;;;;;;5.63;3.90;;;24.20;30.60;;;;;;10424072;28;20225;-67
2023/06/30 01:48:53;;;;;;;4.30;3.90;;;24.10;31.10;;;;;;10424861;28;20311;-67
2023/06/30 01:53:57;;;;;;;5.63;4.00;;;24.00;31.90;;;;;;10421715;28;20583;-67
2023/06/30 01:59:00;;;;;;;5.07;4.10;;;23.90;31.40;;;;;;10420599;28;20767;-67
2023/06/30 02:04:05;;;;;;;4.83;4.43;;;23.70;31.40;;;;;;10437710;28;20249;-67
2023/06/30 02:09:08;;;;;;;4.10;3.80;;;23.50;32.90;;;;;;10420402;28;20235;-67
2023/06/30 02:14:12;;;;;;;4.20;3.90;;;23.30;31.90;;;;;;10417745;28;20341;-67
2023/06/30 02:19:17;;;;;;;5.10;3.80;;;23.20;32.30;;;;;;10413925;28;20229;-67
2023/06/30 02:24:20;;;;;;;4.70;3.80;;;23.10;33.10;;;;;;10417655;28;20231;-67
2023/06/30 02:29:23;;;;;;;4.73;4.37;;;23.10;32.60;;;;;;10423049;28;20227;-67
2023/06/30 02:34:28;;;;;;;3.97;3.67;;;23.10;33.20;;;;;;10419961;28;20315;-67
2023/06/30 02:39:31;;;;;;;5.10;4.67;;;23.20;33.90;;;;;;10417519;28;20335;-67
2023/06/30 02:44:34;;;;;;;4.73;4.33;;;23.30;33.40;;;;;;10417213;28;20346;-67
2023/06/30 02:49:39;;;;;;;5.33;4.43;;;23.30;33.40;;;;;;10418385;28;20288;-67
2023/06/30 02:54:42;;;;;;;4.47;4.07;;;23.30;34.40;;;;;;10420936;28;20297;-67
2023/06/30 02:59:45;;;;;;;5.57;4.77;;;23.20;33.70;;;;;;10419192;28;20964;-67
2023/06/30 03:04:50;;;;;;;4.30;4.00;;;23.20;33.90;;;;;;10419613;28;20230;-67
2023/06/30 03:09:53;;;;;;;4.73;4.23;;;23.10;34.60;;;;;;10421396;28;20239;-67
2023/06/30 03:14:57;;;;;;;5.00;4.50;;;23.10;34.30;;;;;;10421680;28;20221;-67
2023/06/30 03:20:08;;;;;;;6.17;4.90;;;23.00;34.50;;;;;;10420986;28;20982;-67
2023/06/30 03:25:11;;;;;;;4.87;4.47;;;22.90;35.60;;;;;;10413853;28;20295;-68
2023/06/30 03:30:16;;;;;;;4.83;4.43;;;22.80;34.60;;;;;;10417576;28;20230;-68
2023/06/30 03:35:20;;;;;;;4.97;4.57;;;22.70;35.10;;;;;;10421467;28;20224;-69
2023/06/30 03:40:24;;;;;;;5.90;5.27;;;22.70;36.20;;;;;;10420509;28;20265;-69
2023/06/30 03:45:27;;;;;;;5.93;5.00;;;22.50;35.50;;;;;;10421079;28;20227;-69
2023/06/30 03:50:32;;;;;;;5.37;4.97;;;22.50;35.90;;;;;;10423027;28;20322;-69
2023/06/30 03:55:35;;;;;;;5.67;5.13;;;22.40;37.10;;;;;;10421552;28;20239;-69
2023/06/30 04:00:38;;;;;;;6.33;4.70;;;22.30;36.20;;;;;;10411398;28;20284;-69
2023/06/30 04:05:43;;;;;;;6.37;5.30;;;22.30;36.50;;;;;;10418148;28;20857;-69
2023/06/30 04:10:48;;;;;;;5.67;5.10;;;22.20;38.20;;;;;;10419639;28;20311;-69
2023/06/30 04:15:51;;;;;;;5.43;5.03;;;22.30;37.00;;;;;;10424153;28;20701;-69
2023/06/30 04:20:56;;;;;;;6.00;5.27;;;22.30;37.30;;;;;;10428453;28;20641;-69
2023/06/30 04:26:00;;;;;;;5.00;4.50;;;22.40;37.90;;;;;;10430208;28;20224;-69
2023/06/30 04:31:04;;;;;;;6.00;5.50;;;22.40;37.00;;;;;;10420977;28;20231;-69
2023/06/30 04:36:09;;;;;;;5.37;4.73;;;22.50;37.20;;;;;;10426691;28;20819;-69
2023/06/30 04:41:12;;;;;;;5.30;4.90;;;22.50;38.20;;;;;;10431298;28;20221;-69
2023/06/30 04:46:16;;;;;;;6.50;6.00;;;22.60;37.60;;;;;;10422239;28;20256;-68
2023/06/30 04:51:20;;;;;;;6.30;5.80;;;22.60;37.70;;;;;;10414012;28;20260;-68
2023/06/30 04:56:24;;;;;;;5.67;5.27;;;22.60;38.80;;;;;;10417245;28;20348;-69
2023/06/30 05:01:27;;;;;;;6.10;5.53;;;22.50;37.90;;;;;;10417672;28;20588;-68
2023/06/30 05:06:32;;;;;;;5.37;4.97;;;22.50;38.00;;;;;;10417519;28;20232;-68
2023/06/30 05:11:35;;;;;;;5.77;5.37;;;22.50;38.70;;;;;;10419418;28;20235;-68
2023/06/30 05:16:38;;;;;;;6.07;5.53;;;22.50;38.70;;;;;;10413893;28;20603;-68
2023/06/30 05:21:43;;;;;;;6.30;5.60;;;22.50;38.70;;;;;;10424102;28;20842;-71
2023/06/30 05:26:46;;;;;;;9.93;6.10;;;22.40;39.20;;;;;;10415000;28;20336;-68
2023/06/30 05:31:49;;;;;;;6.27;5.80;;;22.40;38.60;;;;;;10437616;28;20225;-68
2023/06/30 05:36:55;;;;;;;6.40;5.90;;;22.30;38.60;;;;;;10429578;28;20296;-68
2023/06/30 05:41:58;;;;;;;6.13;5.63;;;22.30;39.80;;;;;;10429640;28;20325;-68
2023/06/30 05:47:03;;;;;;;11.27;6.20;;;22.20;38.90;;;;;;10433643;28;20572;-71
2023/06/30 05:52:08;;;;;;;6.57;5.77;;;22.20;39.90;;;;;;10433802;28;20225;-68
2023/06/30 05:57:11;;;;;;;5.97;5.33;;;22.20;40.90;;;;;;10436560;28;20327;-68
2023/06/30 06:02:14;;;;;;;6.20;5.57;;;22.20;39.40;;;;;;10431955;28;20271;-68
2023/06/30 06:07:19;;;;;;;6.17;5.67;;;22.20;39.40;;;;;;10431413;28;20224;-68
2023/06/30 06:12:22;;;;;;;6.20;5.60;;;22.30;40.40;;;;;;10439607;28;20236;-69
2023/06/30 06:17:25;;;;;;;7.47;6.77;;;22.40;39.50;;;;;;10432960;28;20607;-68
2023/06/30 06:22:30;;;;;;;7.20;6.50;;;22.40;39.80;;;;;;10422536;28;20260;-68
2023/06/30 06:27:35;;;;;;;9.47;6.83;;;22.40;40.80;;;;;;10428133;28;20248;-69
2023/06/30 06:32:38;;;;;;;7.07;6.47;;;22.40;41.10;;;;;;10432187;28;20311;-68
2023/06/30 06:37:43;;;;;;;7.60;6.80;;;22.30;40.60;;;;;;10416863;28;20222;-68
2023/06/30 06:42:46;;;;;;;7.00;6.30;;;22.30;41.70;;;;;;10409615;28;20308;-68
2023/06/30 06:48:18;;;;;;;7.77;7.07;;;22.30;40.70;;;;;;10413659;28;20821;-69
2023/06/30 06:53:25;;;;;;;6.87;6.27;;;22.30;42.60;;;;;;10410723;28;20232;-68
2023/06/30 06:58:30;;;;;;;8.03;7.20;;;22.30;41.90;;;;;;10411373;28;20739;-68
2023/06/30 07:03:34;;;;;;;8.10;7.30;;;22.40;42.20;;;;;;10414557;28;20303;-68
2023/06/30 07:08:39;;;;;;;7.73;7.03;;;22.40;41.40;;;;;;10413700;28;20714;-68
2023/06/30 07:13:42;;;;;;;7.67;7.07;;;22.50;42.60;;;;;;10426963;28;20304;-68
2023/06/30 07:18:45;;;;;;;7.37;6.73;;;22.50;41.60;;;;;;10426484;28;20252;-69
2023/06/30 07:23:52;;;;;;;7.70;7.00;;;22.60;41.40;;;;;;10427709;28;20627;-68
2023/06/30 07:28:55;;;;;;;8.43;7.73;;;22.70;42.60;;;;;;10417938;28;20235;-69
2023/06/30 07:33:58;;;;;;;7.83;7.00;;;22.80;41.70;;;;;;10420762;28;20225;-68
2023/06/30 07:39:03;;;;;;;7.27;6.63;;;22.90;41.60;;;;;;10406067;28;20243;-68
2023/06/30 07:44:06;;;;;;;9.07;8.17;;;23.00;42.50;;;;;;10410080;28;20309;-68
2023/06/30 07:49:09;;;;;;;9.33;8.33;;;23.10;41.70;;;;;;10415692;28;20976;-68
2023/06/30 07:54:14;;;;;;;8.90;8.10;;;23.20;42.00;;;;;;10419671;28;20647;-68
2023/06/30 07:59:18;;;;;;;9.70;8.80;;;23.20;42.50;;;;;;10427911;28;20722;-68
2023/06/30 08:04:21;;;;;;;8.93;8.13;;;23.30;42.00;;;;;;10434959;28;20228;-68
2023/06/30 08:09:26;;;;;;;9.27;8.37;;;23.30;42.10;;;;;;10437012;28;20777;-68
2023/06/30 08:14:29;;;;;;;9.20;8.30;;;23.30;42.30;;;;;;10438156;28;20225;-68
2023/06/30 08:19:33;;;;;;;10.03;8.57;;;23.40;41.80;;;;;;10434785;28;20229;-68
2023/06/30 08:24:53;;;;;;;9.27;8.47;;;23.40;41.80;;;;;;10431686;28;20236;-68
2023/06/30 08:29:56;;;;;;;9.30;8.37;;;23.40;42.40;;;;;;10417386;28;20607;-69
2023/06/30 08:34:59;;;;;;;9.57;8.67;;;23.50;41.80;;;;;;10420502;28;20259;-69
2023/06/30 08:40:04;;;;;;;9.80;8.90;;;23.50;41.80;;;;;;10422357;28;20257;-69
2023/06/30 08:45:09;;;;;;;10.10;9.20;;;23.50;42.80;;;;;;10422782;28;20226;-69
2023/06/30 08:50:14;;;;;;;11.40;10.30;;;23.50;43.00;;;;;;10424043;28;20239;-69
2023/06/30 08:55:18;;;;;;;11.83;9.83;;;23.50;42.20;;;;;;10418733;28;20235;-69
2023/06/30 09:00:22;;;;;;;9.57;8.67;;;23.50;43.40;;;;;;10419526;28;20238;-68
2023/06/30 09:05:26;;;;;;;10.87;9.63;;;23.50;42.00;;;;;;10425061;28;20232;-68
2023/06/30 09:10:34;;;;;;;9.37;8.47;;;23.50;42.50;;;;;;10417715;28;20233;-68
2023/06/30 09:15:39;;;;;;;9.17;8.30;;;23.60;43.00;;;;;;10414752;28;20213;-68
2023/06/30 09:20:42;;;;;;;8.43;7.63;;;23.60;42.40;;;;;;10417462;28;20233;-68
2023/06/30 09:25:47;;;;;;;9.40;8.50;;;23.80;42.00;;;;;;10413549;28;20221;-68
2023/06/30 09:30:51;;;;;;;8.57;7.77;;;23.80;42.00;;;;;;10411942;28;20923;-68
2023/06/30 09:35:56;;;;;;;7.90;7.13;;;23.80;41.50;;;;;;10430082;28;20232;-68
2023/06/30 09:41:04;;;;;;;8.90;8.07;;;23.90;40.90;;;;;;10425281;28;20312;-69
2023/06/30 09:46:07;;;;;;;9.77;8.90;;;23.90;40.90;;;;;;10427513;28;20295;-68
2023/06/30 09:51:12;;;;;;;9.77;8.77;;;24.00;40.40;;;;;;10435909;28;20229;-68
2023/06/30 09:56:22;;;;;;;10.63;9.63;;;24.00;40.60;;;;;;10438607;28;20271;-68
2023/06/30 10:01:25;;;;;;;11.13;10.03;;;24.10;41.60;;;;;;10427285;28;20235;-69
2023/06/30 10:06:29;;;;;;;14.23;12.83;;;24.20;41.40;;;;;;10432013;28;20259;-69
2023/06/30 10:11:35;;;;;;;13.33;12.00;;;24.30;40.90;;;;;;10433844;28;20228;-69
2023/06/30 10:16:39;;;;;;;13.30;11.90;;;24.40;40.80;;;;;;10441060;28;20628;-68
2023/06/30 10:21:42;;;;;;;15.50;13.53;;;24.50;40.70;;;;;;10429213;28;20228;-69
2023/06/30 10:26:48;;;;;;;16.17;13.37;;;24.60;40.70;;;;;;10436279;28;20221;-68
2023/06/30 10:31:52;;;;;;;15.27;13.70;;;24.70;41.00;;;;;;10432326;28;20228;-68
2023/06/30 10:36:55;;;;;;;17.77;15.77;;;24.70;40.70;;;;;;10438618;28;20239;-68
2023/06/30 10:41:59;;;;;;;17.90;16.03;;;24.80;40.70;;;;;;10417085;28;20245;-68
2023/06/30 10:47:03;;;;;;;15.83;14.23;;;24.80;41.00;;;;;;10418089;28;20797;-67
2023/06/30 10:52:09;;;;;;;14.70;13.20;;;24.80;40.70;;;;;;10427141;28;20702;-69
2023/06/30 10:57:19;;;;;;;16.10;13.80;;;24.70;40.60;;;;;;10430291;28;20236;-70
2023/06/30 11:02:23;;;;;;;12.83;11.53;;;24.60;41.20;;;;;;10433478;28;20284;-70
2023/06/30 11:07:29;;;;;;;13.50;12.10;;;24.50;40.50;;;;;;10436508;28;20232;-70
2023/06/30 11:13:01;;;;;;;13.07;11.77;;;24.20;41.30;;;;;;10422725;28;20355;-69
2023/06/30 11:18:07;;;;;;;11.13;10.00;;;23.90;42.40;;;;;;10394164;28;20304;-70
2023/06/30 11:23:18;;;;;;;11.07;9.97;;;23.70;42.50;;;;;;10424697;28;20236;-68
2023/06/30 11:28:24;;;;;;;14.50;9.57;;;23.60;43.90;;;;;;10424330;28;20225;-68
2023/06/30 11:33:29;;;;;;;11.23;9.47;;;23.60;43.60;;;;;;10423263;28;20231;-68
2023/06/30 11:38:40;;;;;;;11.83;10.63;;;23.50;43.00;;;;;;10426796;28;20233;-69
2023/06/30 11:43:49;;;;;;;10.53;9.43;;;23.40;43.60;;;;;;10425496;28;20842;-69
2023/06/30 11:48:52;;;;;;;10.67;9.57;;;23.30;45.60;;;;;;10426986;28;20736;-69
2023/06/30 11:53:56;;;;;;;10.90;9.77;;;23.30;44.40;;;;;;10430491;28;20224;-69
2023/06/30 11:59:00;;;;;;;11.93;10.60;;;23.40;44.60;;;;;;10417204;28;20233;-68
2023/06/30 12:04:34;;;;;;;13.00;11.60;;;23.50;44.80;;;;;;10417193;28;20229;-69
2023/06/30 12:09:40;;;;;;;11.87;10.60;;;23.60;45.60;;;;;;10409502;28;20803;-69
2023/06/30 12:14:45;;;;;;;13.30;11.90;;;23.70;45.60;;;;;;10409363;28;20355;-69
2023/06/30 12:19:51;;;;;;;12.57;11.27;;;23.80;45.70;;;;;;10422804;28;20249;-69
2023/06/30 12:24:55;;;;;;;12.60;11.30;;;23.90;45.70;;;;;;10416948;28;20235;-68
2023/06/30 12:30:00;;;;;;;12.90;11.60;;;23.90;45.10;;;;;;10419978;28;20929;-68
2023/06/30 12:35:03;;;;;;;12.13;10.93;;;24.00;45.40;;;;;;10426885;28;20225;-69
2023/06/30 12:40:10;;;;;;;13.00;11.63;;;24.10;44.80;;;;;;10424361;28;20245;-68
2023/06/30 12:45:15;;;;;;;13.43;12.13;;;24.10;44.80;;;;;;10424091;28;20419;-69
2023/06/30 12:50:19;;;;;;;13.90;12.50;;;24.20;45.10;;;;;;10429091;28;20248;-69
2023/06/30 12:55:23;;;;;;;13.53;12.23;;;24.30;44.50;;;;;;10416162;28;20231;-68
2023/06/30 13:00:27;;;;;;;14.23;12.73;;;24.30;44.50;;;;;;10423722;28;20237;-69
2023/06/30 13:05:30;;;;;;;13.77;12.37;;;24.40;45.00;;;;;;10423547;28;20233;-69
2023/06/30 13:10:34;;;;;;;13.97;12.57;;;24.40;44.70;;;;;;10432433;28;20282;-69
2023/06/30 13:15:38;;;;;;;14.50;13.00;;;24.50;44.30;;;;;;10418669;28;20924;-69
2023/06/30 13:20:41;;;;;;;14.70;13.10;;;24.60;44.40;;;;;;10430643;28;21419;-69
2023/06/30 13:25:44;;;;;;;14.00;12.60;;;24.70;44.40;;;;;;10422801;28;20344;-68
2023/06/30 13:30:49;;;;;;;13.53;12.10;;;24.90;44.50;;;;;;10422479;28;20588;-69
2023/06/30 13:35:53;;;;;;;13.47;12.27;;;25.00;44.80;;;;;;10417965;28;20259;-69
2023/06/30 13:40:56;;;;;;;15.60;14.00;;;25.20;44.50;;;;;;10417993;28;20236;-68
2023/06/30 13:46:01;;;;;;;16.30;14.70;;;25.40;43.40;;;;;;10424533;28;20324;-68
2023/06/30 13:51:04;;;;;;;15.80;14.10;;;25.60;43.30;;;;;;10415971;28;20221;-68
2023/06/30 13:56:07;;;;;;;15.93;14.33;;;25.80;43.00;;;;;;10419173;28;20312;-69
2023/06/30 14:01:12;;;;;;;16.80;15.20;;;25.90;42.50;;;;;;10419102;28;20248;-71
2023/06/30 14:06:16;;;;;;;17.03;15.23;;;26.00;42.30;;;;;;10422310;28;20229;-66
2023/06/30 14:11:20;;;;;;;15.70;14.13;;;26.00;42.30;;;;;;10431128;28;20524;-69
2023/06/30 14:16:25;;;;;;;12.70;11.50;;;26.10;41.20;;;;;;10394752;28;20238;-69
2023/06/30 14:21:28;;;;;;;14.30;13.00;;;26.00;39.40;;;;;;10422446;28;20798;-69
2023/06/30 14:26:34;;;;;;;18.13;16.23;;;26.00;40.00;;;;;;10417575;28;20298;-69
2023/06/30 14:31:40;;;;;;;20.70;18.50;;;25.80;38.70;;;;;;10419243;28;20238;-70
2023/06/30 14:36:44;;;;;;;22.37;18.87;;;25.60;38.20;;;;;;10427372;28;20235;-69
2023/06/30 14:41:47;;;;;;;21.43;19.23;;;25.40;39.10;;;;;;10416467;28;20304;-70
2023/06/30 14:47:06;;;;;;;21.10;18.77;;;25.30;39.10;;;;;;10418496;28;20306;-70
2023/06/30 14:52:09;;;;;;;20.70;18.50;;;25.20;39.20;;;;;;10427733;28;20234;-69
2023/06/30 14:57:13;;;;;;;21.83;19.63;;;25.00;39.40;;;;;;10422327;28;20243;-70
2023/06/30 15:02:18;;;;;;;20.20;18.00;;;24.90;39.70;;;;;;10407398;28;20263;-69
2023/06/30 15:07:22;;;;;;;19.77;17.67;;;24.90;40.00;;;;;;10409341;28;20237;-69
2023/06/30 15:12:25;;;;;;;21.37;18.63;;;24.80;40.20;;;;;;10422858;28;20244;-70
2023/06/30 15:17:30;;;;;;;20.03;17.93;;;24.80;40.20;;;;;;10420864;28;20958;-70
2023/06/30 15:22:33;;;;;;;21.07;18.80;;;24.80;40.70;;;;;;10423707;28;20823;-69
2023/06/30 15:27:36;;;;;;;21.33;19.03;;;24.80;40.70;;;;;;10422619;28;20815;-69
2023/06/30 15:32:41;;;;;;;20.13;18.10;;;24.80;40.70;;;;;;10406093;28;20777;-69
2023/06/30 15:37:44;;;;;;;19.70;17.47;;;24.90;40.80;;;;;;10412260;28;20315;-69
2023/06/30 15:42:47;;;;;;;20.63;18.53;;;24.90;40.80;;;;;;10401723;28;20228;-69
2023/06/30 15:47:55;;;;;;;19.43;17.33;;;24.90;40.60;;;;;;10402236;28;21290;-69
2023/06/30 15:52:59;;;;;;;20.00;17.97;;;24.90;40.90;;;;;;10409392;28;20228;-69
2023/06/30 15:58:02;;;;;;;19.67;17.60;;;24.90;40.80;;;;;;10408336;28;20229;-69
2023/06/30 16:03:07;;;;;;;20.70;18.50;;;25.00;40.90;;;;;;10419821;28;20257;-69
2023/06/30 16:08:10;;;;;;;20.17;17.73;;;25.00;40.90;;;;;;10422624;28;20229;-69
2023/06/30 16:13:13;;;;;;;20.27;18.17;;;25.00;40.90;;;;;;10434866;28;20323;-68
2023/06/30 16:18:18;;;;;;;19.23;17.20;;;25.00;40.90;;;;;;10428254;28;20284;-68
2023/06/30 16:23:21;;;;;;;21.10;18.03;;;25.00;40.90;;;;;;10434206;28;20275;-68
2023/06/30 16:28:25;;;;;;;19.53;17.53;;;24.90;40.80;;;;;;10426653;28;20232;-69
2023/06/30 16:33:29;;;;;;;19.10;17.13;;;24.90;40.80;;;;;;10432538;28;20232;-68
2023/06/30 16:38:33;;;;;;;18.47;16.57;;;24.90;40.80;;;;;;10433254;28;20229;-69
2023/06/30 16:43:36;;;;;;;19.40;17.17;;;24.90;40.80;;;;;;10428083;28;20260;-68
2023/06/30 16:48:41;;;;;;;19.57;17.63;;;24.90;40.80;;;;;;10428393;28;20224;-69
2023/06/30 16:53:44;;;;;;;20.00;17.90;;;25.00;40.90;;;;;;10436206;28;20260;-69
2023/06/30 16:58:47;;;;;;;21.30;19.07;;;25.00;40.90;;;;;;10434044;28;20256;-68
2023/06/30 17:03:54;;;;;;;20.67;18.50;;;25.00;40.90;;;;;;10431975;28;20322;-69
2023/06/30 17:08:57;;;;;;;20.83;18.83;;;25.10;41.00;;;;;;10433616;28;20228;-69
2023/06/30 17:14:01;;;;;;;20.37;18.27;;;25.20;41.00;;;;;;10428689;28;20236;-68
2023/06/30 17:19:05;;;;;;;18.70;16.60;;;25.20;41.00;;;;;;10425369;28;20225;-69
2023/06/30 17:24:09;;;;;;;20.30;18.30;;;25.20;41.00;;;;;;10429879;28;20248;-69
2023/06/30 17:29:13;;;;;;;21.30;18.53;;;25.10;41.00;;;;;;10432784;28;20224;-68
2023/06/30 17:34:17;;;;;;;21.23;19.13;;;25.10;41.00;;;;;;10426187;28;20239;-69
2023/06/30 17:39:20;;;;;;;20.40;18.30;;;25.00;40.90;;;;;;10431654;28;20237;-69
2023/06/30 17:44:24;;;;;;;21.30;19.10;;;24.90;40.80;;;;;;10432275;28;20739;-68
2023/06/30 17:49:30;;;;;;;22.47;19.27;;;24.80;41.20;;;;;;10428733;28;20232;-68
2023/06/30 17:54:33;;;;;;;21.90;19.60;;;24.70;41.90;;;;;;10436100;28;20244;-69
2023/06/30 17:59:36;;;;;;;21.63;19.40;;;24.60;41.70;;;;;;10419544;28;20232;-69
2023/06/30 18:04:41;;;;;;;22.13;19.83;;;24.50;42.00;;;;;;10427407;28;20222;-69
2023/06/30 18:09:44;;;;;;;22.30;20.00;;;24.50;43.10;;;;;;10423088;28;20284;-68
2023/06/30 18:14:47;;;;;;;26.30;21.57;;;24.40;42.60;;;;;;10426870;28;20585;-70
2023/06/30 18:19:52;;;;;;;22.37;20.00;;;24.40;41.90;;;;;;10427953;28;21177;-70
2023/06/30 18:24:55;;;;;;;21.30;19.20;;;24.20;41.80;;;;;;10432092;28;20241;-71
2023/06/30 18:29:58;;;;;;;20.97;18.77;;;24.00;42.00;;;;;;10426403;28;20239;-70
2023/06/30 18:35:04;;;;;;;22.67;20.37;;;23.80;42.40;;;;;;10437470;28;20224;-71
2023/06/30 18:40:10;;;;;;;22.93;20.50;;;23.70;43.10;;;;;;10425105;28;20235;-70
2023/06/30 18:45:13;;;;;;;21.87;19.57;;;23.50;43.10;;;;;;10423870;28;20253;-70
2023/06/30 18:50:18;;;;;;;21.23;19.13;;;23.50;42.90;;;;;;10426601;28;20236;-70
2023/06/30 18:55:21;;;;;;;21.20;18.90;;;23.40;43.80;;;;;;10428927;28;20659;-67
2023/06/30 19:00:25;;;;;;;21.00;18.83;;;23.40;43.40;;;;;;10426281;28;20256;-70
2023/06/30 19:05:30;;;;;;;21.27;19.17;;;23.50;43.60;;;;;;10430568;28;20222;-70
2023/06/30 19:10:33;;;;;;;19.53;17.73;;;23.50;44.10;;;;;;10434792;28;20240;-70
2023/06/30 19:15:36;;;;;;;19.93;17.43;;;23.50;43.50;;;;;;10429023;28;20236;-69
2023/06/30 19:20:42;;;;;;;19.57;17.77;;;23.60;43.60;;;;;;10422443;28;20233;-69
2023/06/30 19:25:45;;;;;;;17.30;15.60;;;23.50;44.10;;;;;;10431865;28;20224;-70
2023/06/30 19:30:50;;;;;;;16.83;15.20;;;23.60;43.80;;;;;;10426603;28;20235;-70
2023/06/30 19:35:55;;;;;;;16.93;15.23;;;23.60;43.60;;;;;;10425222;28;20658;-70
2023/06/30 19:40:58;;;;;;;17.90;16.13;;;23.60;44.20;;;;;;10424070;28;20233;-69
2023/06/30 19:46:02;;;;;;;18.00;16.13;;;23.60;43.60;;;;;;10432706;28;20270;-71
2023/06/30 19:51:06;;;;;;;17.93;16.23;;;23.70;43.80;;;;;;10431731;28;20229;-70
2023/06/30 19:56:13;;;;;;;17.70;16.00;;;23.70;44.10;;;;;;10426186;28;20221;-69
2023/06/30 20:01:18;;;;;;;18.27;16.47;;;23.70;43.60;;;;;;10426694;28;20298;-69
2023/06/30 20:06:23;;;;;;;17.40;15.70;;;23.70;43.80;;;;;;10425084;28;20241;-69
2023/06/30 20:11:26;;;;;;;16.50;14.90;;;23.70;44.20;;;;;;10415079;28;20227;-69
2023/06/30 20:16:30;;;;;;;18.17;16.47;;;23.70;43.60;;;;;;10425243;28;20239;-69
2023/06/30 20:21:34;;;;;;;15.77;14.27;;;23.70;43.60;;;;;;10417439;28;20232;-69
2023/06/30 20:26:38;;;;;;;17.03;15.33;;;23.60;44.00;;;;;;10417715;28;20904;-69
2023/06/30 20:31:41;;;;;;;16.97;15.37;;;23.60;43.80;;;;;;10404318;28;20245;-69
2023/06/30 20:36:45;;;;;;;17.73;16.03;;;23.50;43.90;;;;;;10409960;28;20237;-69
2023/06/30 20:41:49;;;;;;;18.53;16.63;;;23.50;44.70;;;;;;10402866;28;20592;-69
2023/06/30 20:46:52;;;;;;;18.10;16.17;;;23.40;44.10;;;;;;10406800;28;20236;-69
2023/06/30 20:51:57;;;;;;;17.67;15.97;;;23.30;44.90;;;;;;10411066;28;20648;-69
2023/06/30 20:57:00;;;;;;;18.07;16.27;;;23.10;44.80;;;;;;10424320;28;20232;-69
2023/06/30 21:02:04;;;;;;;17.13;15.43;;;23.00;44.60;;;;;;10427914;28;20312;-69
2023/06/30 21:07:09;;;;;;;18.83;16.93;;;22.90;45.10;;;;;;10426774;28;20228;-70
2023/06/30 21:12:13;;;;;;;17.77;16.07;;;22.90;45.60;;;;;;10427657;28;20224;-69
2023/06/30 21:17:16;;;;;;;18.40;16.63;;;23.00;45.20;;;;;;10424822;28;20328;-69
2023/06/30 21:22:21;;;;;;;17.20;15.53;;;23.00;45.20;;;;;;10416382;28;20795;-69
2023/06/30 21:27:24;;;;;;;18.87;16.90;;;23.00;45.40;;;;;;10428633;28;20652;-69
2023/06/30 21:32:27;;;;;;;18.57;16.67;;;23.10;45.20;;;;;;10428820;28;20232;-69
2023/06/30 21:37:32;;;;;;;17.50;15.80;;;23.00;45.00;;;;;;10418683;28;20237;-69
2023/06/30 21:42:35;;;;;;;17.13;15.43;;;23.00;45.60;;;;;;10417234;28;20309;-69
2023/06/30 21:47:38;;;;;;;18.77;16.93;;;23.00;45.30;;;;;;10421026;28;20239;-69
2023/06/30 21:52:43;;;;;;;16.83;15.10;;;23.00;45.30;;;;;;10422844;28;20224;-69
2023/06/30 21:57:47;;;;;;;16.87;15.33;;;23.10;45.90;;;;;;10421024;28;20292;-69
2023/06/30 22:02:55;;;;;;;19.10;17.20;;;23.10;45.40;;;;;;10418499;28;20244;-69
2023/06/30 22:08:00;;;;;;;19.10;17.20;;;23.10;46.10;;;;;;10427414;28;20235;-68
2023/06/30 22:13:03;;;;;;;20.27;18.17;;;23.10;45.80;;;;;;10420120;28;20221;-69
2023/06/30 22:18:07;;;;;;;21.83;19.53;;;23.10;45.20;;;;;;10417946;28;20248;-68
2023/06/30 22:23:11;;;;;;;22.07;19.77;;;23.10;45.10;;;;;;10419711;28;20235;-68
2023/06/30 22:28:14;;;;;;;22.57;20.10;;;23.10;45.30;;;;;;10419987;28;20229;-69
2023/06/30 22:33:18;;;;;;;20.73;18.63;;;23.10;44.80;;;;;;10418619;28;20240;-69
2023/06/30 22:38:22;;;;;;;21.20;18.90;;;23.00;44.70;;;;;;10418793;28;20351;-69
2023/06/30 22:43:25;;;;;;;19.80;17.87;;;23.00;45.10;;;;;;10424324;28;20252;-69
2023/06/30 22:48:28;;;;;;;21.57;18.63;;;22.90;44.70;;;;;;10413511;28;20595;-68
2023/06/30 22:53:35;;;;;;;21.67;19.47;;;22.90;44.70;;;;;;10425355;28;20843;-69
2023/06/30 22:58:38;;;;;;;21.83;18.00;;;22.90;45.70;;;;;;10417384;28;20231;-69
2023/06/30 23:03:41;;;;;;;19.17;17.27;;;22.90;44.80;;;;;;10411197;28;20223;-69
2023/06/30 23:08:46;;;;;;;21.20;19.00;;;22.90;44.70;;;;;;10418100;28;20278;-69
2023/06/30 23:13:49;;;;;;;22.07;19.43;;;22.80;45.10;;;;;;10422628;28;20671;-69
2023/06/30 23:18:52;;;;;;;20.03;17.93;;;22.80;44.70;;;;;;10419520;28;20327;-69
2023/06/30 23:23:57;;;;;;;22.73;19.43;;;22.70;44.80;;;;;;10422602;28;20312;-69
2023/06/30 23:29:00;;;;;;;20.43;18.13;;;22.60;45.00;;;;;;10428887;28;20601;-69
2023/06/30 23:34:04;;;;;;;19.80;17.70;;;22.50;44.80;;;;;;10424833;28;20304;-69
2023/06/30 23:39:08;;;;;;;20.73;17.90;;;22.40;44.70;;;;;;10411090;28;20225;-69
2023/06/30 23:44:12;;;;;;;20.97;18.77;;;22.40;44.80;;;;;;10431323;28;20230;-69
2023/06/30 23:49:16;;;;;;;20.17;18.07;;;22.40;44.70;;;;;;10412554;28;20229;-69
2023/06/30 23:54:20;;;;;;;20.43;16.67;;;22.30;44.50;;;;;;10419551;28;20230;-69
2023/06/30 23:59:24;;;;;;;19.87;17.63;;;22.20;44.60;;;;;;10415453;28;20319;-69
